Hauptseite
METAR-TAF:

METAR-TAF

Flughäfen :

Parma, Italien

Flughafen Parma

Breite: 44-49-17N, Länge: 010-17-41E, Höhe: 50 m

Beobachtung

Neuester Wetterbericht von vor 1 Stunde und 58 Minuten, um 21:50 UTC
Wind 3 kt aus Süd
Temperatur 3°C
Luftfeuchtigkeit 70%
Luftdruck 1011 hPa
Sichtweite 10 km oder mehr
keine Wolken unter 1500 m und keine Kumulonimbus oder Gewitterwolken

METAR: LIMP 182150Z 18003KT CAVOK 03/M02 Q1011

Zeit: 00:48 (23:48 UTC)

Prognose

Neuester Wetterbericht von vor 48 Minuten, um 23:00 UTC
Gültige Prognose vom 19 um 00 UTC bis 19 um 24 UTC
Wind 5 kt aus Südwest
Sichtweite 10 km oder mehr
keine Wolken unter 1500 m und keine Kumulonimbus oder Gewitterwolken

TAF: LIMP 182300Z 1900/1924 22005KT CAVOK

Wetterbeobachtungen und Prognosen von mehr als 4000 Flughäfen (METAR und TAF Bericht).

Die verfügbaren Stationen werden durch gelbe und rote Markierungen auf der Karte dargestellt.

Führen Sie die Maus auf sie, um den Namen der Station zu sehen.

Darauf klicken, um die Beobachtung von Wetterbeobachtungen und Prognosen zu sehen.

Um die Karte zu ändern : klicken Sie auf den grünen Tasten mit einem schwarzen Kreuz Zum Vergrößern, auf den grünen Button mit einem Gedankenstrich zu verkleinern, oder auf die grünen Pfeile für benachbarte Karten.


METAR-TAF: